Latest Coastal Weather Observations for Whyalla

IDS60701

Issued at 9:51 am CDT Tuesday 3 March 2015 (issued every 10 minutes, with the page automatically refreshed every 10 minutes)

About coastal observations | Map of coastal stations | Coastal observations for SA | Marine services | Other Formats
Station Details ID: 018120 Name: WHYALLA AERO Lat: -33.05 Lon: 137.52 Height: 6.5 m
Data from the previous 72 hours. | See also: Recent months at Whyalla
Date/Time
CDT
Temp

°C
Wind Pressure Rain
since 9am
mm
Weather Cloud Vis
km
Sea
Height
m
Swell
Dir
 
Speed
knots
Gust
knots
hPa Trend Height
m
Period
s
Dir
03/09:30am 21.1 S 12 17 1017.3 - 0.0 - Cloudy 10 - - - -
03/09:00am 20.9 S 12 16 1016.7 - 0.0 - Cloudy 10 - - - -
03/08:30am 20.7 S 11 14 1016.7 - 0.0 - Cloudy 10 - - - -
03/08:00am 20.6 S 11 14 1016.0 - 0.0 - Cloudy 10 - - - -
03/07:30am 20.4 S 9 13 1015.9 - 0.0 - Cloudy 10 - - - -
03/07:00am 20.3 S 9 12 1015.4 - 0.0 - Cloudy 10 - - - -
03/06:30am 20.2 S 10 13 1015.2 - 0.0 - Cloudy 10 - - - -
03/06:00am 20.2 S 9 13 1014.6 - 0.0 - Cloudy 10 - - - -
03/05:30am 20.2 SSE 8 11 1015.0 - 0.0 - Cloudy 10 - - - -
03/05:00am 20.2 SSE 8 12 1014.7 - 0.0 - Cloudy 10 - - - -
03/04:30am 20.3 SSE 10 14 1014.6 - 0.0 - Partly cloudy 10 - - - -
03/04:00am 20.5 SSE 10 15 1014.6 - 0.0 - Partly cloudy 10 - - - -
03/03:30am 20.7 SSE 9 15 1014.7 - 0.0 - Cloudy 10 - - - -
03/03:00am 20.9 S 11 15 1014.8 - 0.0 - Cloudy 10 - - - -
03/02:30am 21.0 S 11 15 1015.3 - 0.0 - Cloudy 10 - - - -
03/02:00am 20.9 S 11 16 1015.0 - 0.0 - Cloudy 10 - - - -
03/01:30am 21.1 S 12 16 1015.1 - 0.0 - Cloudy 10 - - - -
03/01:00am 21.0 SSW 12 16 1015.1 - 0.0 - Cloudy 10 - - - -
03/12:30am 20.9 SSW 14 19 1015.0 - 0.0 - Cloudy 10 - - - -
03/12:00am 20.9 S 14 19 1015.4 - 0.0 - Cloudy 10 - - - -
 
Date/Time
CDT
Temp

°C
Wind Pressure Rain
since 9am
mm
Weather Cloud Vis
km
Sea
Height
m
Swell
Dir
 
Speed
knots
Gust
knots
hPa Trend Height
m
Period
s
Dir
02/11:30pm 21.1 S 14 18 1015.5 - 0.0 - Cloudy 10 - - - -
02/11:00pm 21.1 S 14 19 1015.8 - 0.0 - Cloudy 10 - - - -
02/10:30pm 21.4 S 15 22 1015.9 - 0.0 - Cloudy 10 - - - -
02/10:00pm 21.6 S 15 20 1015.7 - 0.0 - Cloudy 10 - - - -
02/09:30pm 21.4 SSW 15 19 1015.1 - 0.0 - Partly cloudy 10 - - - -
02/09:00pm 21.3 SSW 14 19 1014.7 - 0.0 - Mostly cloudy 10 - - - -
02/08:30pm 21.6 SSW 15 20 1014.4 - 0.0 - Cloudy 10 - - - -
02/08:00pm 22.2 S 19 26 1013.8 - 0.0 - Cloudy 10 - - - -
02/07:30pm 22.4 SSW 17 23 1013.1 - 0.0 - Cloudy 10 - - - -
02/07:00pm 22.3 SSW 20 27 1012.8 - 0.0 - Partly cloudy 10 - - - -
02/06:38pm 22.5 SSW 18 29 1012.4 - 0.0 - Partly cloudy 10 - - - -
02/06:30pm 22.7 SSW 17 22 1012.2 - 0.0 - Partly cloudy 10 - - - -
02/06:00pm 23.4 S 19 27 1011.9 - 0.0 - Cloudy 10 - - - -
02/05:30pm 24.0 SSW 18 24 1011.7 - 0.0 - Partly cloudy 10 - - - -
02/05:00pm 26.1 S 13 17 1011.4 - 0.0 - - 10 - - - -
02/04:30pm 27.3 SSE 11 14 1011.0 - 0.0 - - 10 - - - -
02/04:00pm 27.6 SSE 11 14 1010.9 - 0.0 - - 10 - - - -
02/03:30pm 27.4 SSE 11 13 1011.2 - 0.0 - - 10 - - - -
02/03:00pm 28.2 SSE 10 13 1011.4 - 0.0 - Cloudy 10 - - - -
02/02:30pm 28.8 SSE 9 12 1011.7 - 0.0 - - 10 - - - -
02/02:00pm 28.3 S 7 11 1011.8 - 0.0 - - 10 - - - -
02/01:30pm 27.5 S 8 10 1012.1 - 0.0 - - 10 - - - -
02/01:00pm 27.3 SSE 7 10 1012.5 - 0.0 - - 10 - - - -
02/12:30pm 27.2 ESE 4 8 1012.8 - 0.0 - - 10 - - - -
02/12:00pm 26.0 SE 6 9 1013.2 - 0.0 - Mostly cloudy 10 - - - -
02/11:30am 25.5 E 5 9 1013.1 - 0.0 - - 10 - - - -
02/11:00am 25.0 E 6 11 1013.5 - 0.0 - - 10 - - - -
02/10:30am 24.5 SE 5 9 1013.6 - 0.0 - - 10 - - - -
02/10:00am 23.0 SW 3 6 1013.8 - 0.0 - - 10 - - - -
02/09:30am 21.4 SW 3 5 1013.9 - 0.0 - - 10 - - - -
02/09:00am 19.8 CALM 0 0 1013.8 - 0.0 - Cloudy 10 - - - -
02/08:30am 17.1 W 3 4 1013.8 - 0.0 - - 10 - - - -
02/08:00am 15.6 WNW 4 5 1013.8 - 0.0 - - 10 - - - -
02/07:30am 15.2 NW 1 3 1013.7 - 0.0 - - 10 - - - -
02/07:00am 15.3 CALM 0 0 1013.6 - 0.0 - - 10 - - - -
02/06:30am 15.5 W 1 3 1013.5 - 0.0 - - 10 - - - -
02/06:00am 15.8 WSW 5 5 1013.6 - 0.0 - - 10 - - - -
02/05:30am 16.2 SW 5 6 1013.2 - 0.0 - - 10 - - - -
02/05:00am 16.5 WSW 4 5 1013.1 - 0.0 - - 10 - - - -
02/04:30am 17.2 SW 5 7 1013.2 - 0.0 - - 10 - - - -
02/04:00am 18.9 S 4 6 1013.1 - 0.0 - - 10 - - - -
02/03:30am 19.0 SE 6 7 1012.4 - 0.0 - - 10 - - - -
02/03:00am 18.7 SE 7 11 1012.4 - 0.0 - - 10 - - - -
02/02:30am 18.8 SE 7 11 1013.0 - 0.0 - - 10 - - - -
02/02:00am 19.4 SE 7 10 1013.1 - 0.0 - - 10 - - - -
02/01:30am 19.7 SSE 8 12 1013.4 - 0.0 - - 10 - - - -
02/01:00am 19.6 S 10 13 1013.9 - 0.0 - - 10 - - - -
02/12:30am 19.6 S 11 15 1014.4 - 0.0 - - 10 - - - -
02/12:00am 19.3 S 11 15 1014.8 - 0.0 - - 10 - - - -
 
Date/Time
CDT
Temp

°C
Wind Pressure Rain
since 9am
mm
Weather Cloud Vis
km
Sea
Height
m
Swell
Dir
 
Speed
knots
Gust
knots
hPa Trend Height
m
Period
s
Dir
01/11:30pm 19.5 S 11 17 1015.4 - 0.0 - - 10 - - - -
01/11:00pm 19.8 SSE 11 15 1015.7 - 0.0 - - 10 - - - -
01/10:30pm 20.1 SSE 11 15 1015.6 - 0.0 - - 10 - - - -
01/10:00pm 20.6 SSE 11 16 1015.1 - 0.0 - - 10 - - - -
01/09:30pm 21.2 SSE 11 16 1014.8 - 0.0 - - 10 - - - -
01/09:00pm 21.0 SSW 14 21 1014.4 - 0.0 - - 10 - - - -
01/08:30pm 21.1 SSW 16 21 1014.4 - 0.0 - - 10 - - - -
01/08:00pm 21.2 SSW 16 21 1014.0 - 0.0 - - 10 - - - -
01/07:30pm 21.5 SSW 20 27 1013.7 - 0.0 - - 10 - - - -
01/07:00pm 22.1 SSW 22 27 1013.6 - 0.0 - - 10 - - - -
01/06:30pm 22.6 SSW 21 28 1013.4 - 0.0 - - 10 - - - -
01/06:00pm 22.7 SSW 22 28 1013.4 - 0.0 - - 10 - - - -
01/05:30pm 22.9 SSW 20 26 1013.7 - 0.0 - - 10 - - - -
01/05:00pm 22.9 SSW 21 26 1014.0 - 0.0 - - 10 - - - -
01/04:30pm 22.7 SSW 20 26 1014.1 - 0.0 - - 10 - - - -
01/04:00pm 22.5 S 20 27 1014.2 - 0.0 - - 10 - - - -
01/03:30pm 23.4 S 18 26 1014.4 - 0.0 - - 10 - - - -
01/03:00pm 23.1 S 19 25 1014.8 - 0.0 - - 10 - - - -
01/02:30pm 22.8 S 17 24 1015.1 - 0.0 - - 10 - - - -
01/02:00pm 22.5 S 14 21 1015.4 - 0.0 - - 10 - - - -
01/01:30pm 21.7 S 13 18 1015.8 - 0.0 - Partly cloudy 10 - - - -
01/01:00pm 21.4 SSE 12 18 1016.3 - 0.0 - Cloudy 10 - - - -
01/12:30pm 21.8 SE 13 19 1016.6 - 0.0 - Partly cloudy 10 - - - -
01/12:00pm 21.1 SSE 14 20 1016.9 - 0.0 - Mostly cloudy 10 - - - -
01/11:30am 21.5 SSE 15 21 1016.9 - 0.0 - Partly cloudy 10 - - - -
01/11:00am 20.2 SSE 14 21 1016.9 - 0.0 - Partly cloudy 10 - - - -
01/10:30am 20.5 SSE 13 19 1016.8 - 0.0 - Partly cloudy 10 - - - -
01/10:00am 19.3 SSE 13 19 1016.6 - 0.0 - Partly cloudy 10 - - - -
01/09:30am 19.5 SSE 12 17 1016.3 - 0.0 - Partly cloudy 10 - - - -
01/09:00am 18.5 SSE 13 18 1016.0 - 0.0 - Mostly cloudy 10 - - - -
01/08:30am 18.2 SSE 13 19 1015.6 - 0.0 - Partly cloudy 10 - - - -
01/08:00am 18.4 SSE 16 23 1015.1 - 0.0 - Cloudy 10 - - - -
01/07:30am 18.2 SSE 16 23 1014.6 - 0.0 - Cloudy 10 - - - -
01/07:00am 18.4 SSE 15 21 1014.1 - 0.0 - Cloudy 10 - - - -
01/06:30am 18.5 SSE 15 23 1013.5 - 0.0 - Partly cloudy 10 - - - -
01/06:00am 18.8 SSE 15 23 1012.9 - 0.0 - Mostly cloudy 10 - - - -
01/05:30am 19.3 S 15 22 1012.8 - 0.0 - Cloudy 10 - - - -
01/05:00am 18.9 SSE 15 21 1012.5 - 0.0 - Partly cloudy 10 - - - -
01/04:30am 19.5 S 13 19 1012.2 - 0.0 - Cloudy 10 - - - -
01/04:00am 19.5 S 15 21 1012.1 - 0.0 - Partly cloudy 10 - - - -
01/03:30am 19.5 S 16 23 1011.8 - 0.0 - Partly cloudy 10 - - - -
01/03:00am 19.6 S 16 23 1011.8 - 0.0 - Partly cloudy 10 - - - -
01/02:30am 19.7 S 15 21 1011.8 - 0.0 - Partly cloudy 10 - - - -
01/02:00am 19.8 S 16 24 1011.7 - 0.0 - Partly cloudy 10 - - - -
01/01:30am 19.8 S 18 24 1011.6 - 0.0 - Partly cloudy 10 - - - -
01/01:00am 20.1 S 17 24 1011.7 - 0.0 - Partly cloudy 10 - - - -
01/12:30am 20.4 S 20 27 1011.5 - 0.0 - Partly cloudy 10 - - - -
01/12:00am 20.4 SSW 21 28 1011.3 - 0.0 - Mostly cloudy 10 - - - -
 
Date/Time
CDT
Temp

°C
Wind Pressure Rain
since 9am
mm
Weather Cloud Vis
km
Sea
Height
m
Swell
Dir
 
Speed
knots
Gust
knots
hPa Trend Height
m
Period
s
Dir
28/11:30pm 20.7 SSW 20 28 1011.4 - 0.0 - Cloudy 10 - - - -
28/11:00pm 20.5 SSW 16 22 1011.4 - 0.0 - Cloudy 10 - - - -
28/10:30pm 20.6 SSW 18 25 1011.4 - 0.0 - Partly cloudy 10 - - - -
28/10:00pm 20.8 SSW 20 27 1011.0 - 0.0 - Partly cloudy 10 - - - -
28/09:30pm 21.2 SSW 21 31 1010.4 - 0.0 - Partly cloudy 10 - - - -
28/09:27pm 21.3 SSW 21 31 1010.4 - 0.0 - Cloudy 10 - - - -
28/09:00pm 21.6 SSW 22 30 1009.6 - 0.0 - Mostly cloudy 10 - - - -
28/08:30pm 22.0 SSW 23 30 1009.3 - 0.0 - Partly cloudy 10 - - - -
28/08:00pm 22.9 SSW 20 29 1008.7 - 0.0 - - 10 - - - -
28/07:58pm 22.9 SSW 19 29 1008.6 - 0.0 - - 10 - - - -
28/07:30pm 23.4 SSW 19 24 1008.1 - 0.0 - Cloudy 10 - - - -
28/07:00pm 23.4 S 18 25 1007.7 - 0.0 - Cloudy 10 - - - -
28/06:30pm 23.8 S 19 26 1007.4 - 0.0 - Cloudy 10 - - - -
28/06:00pm 25.1 S 18 25 1006.8 - 0.0 - Cloudy 10 - - - -
28/05:30pm 25.2 S 20 27 1006.1 - 0.0 - Partly cloudy 10 - - - -
28/05:00pm 26.4 S 21 29 1005.4 - 0.0 - - 10 - - - -
28/04:30pm 26.3 S 22 29 1004.6 - 0.0 - - 10 - - - -
28/04:00pm 27.0 S 26 35 1004.4 - 0.0 - - 10 - - - -
28/03:30pm 27.7 S 26 36 1003.8 - 0.0 - - 10 - - - -
28/03:08pm 27.6 S 26 36 1003.9 - 0.0 - - 10 - - - -
28/03:00pm 26.6 S 26 35 1003.5 - 0.0 - Mostly cloudy 10 - - - -
28/02:35pm 28.2 S 22 32 1003.3 - 0.0 - - 10 - - - -
28/02:30pm 27.9 S 21 30 1003.2 - 0.0 - - 10 - - - -
28/02:00pm 28.9 S 23 30 1003.3 - 0.0 - - 10 - - - -
28/01:45pm 31.1 SSW 21 31 1002.9 - 0.0 - - 10 - - - -
28/01:37pm 34.5 W 16 24 1002.8 - 0.0 - - 10 - - - -
28/01:30pm 40.0 WNW 17 25 1002.4 - 0.0 - - 10 - - - -
28/01:04pm 41.0 NW 17 27 1002.5 - 0.0 - - 10 - - - -
28/01:00pm 39.8 NW 19 27 1002.6 - 0.0 - - 10 - - - -
28/12:35pm 38.9 NW 19 29 1002.8 - 0.0 - - 10 - - - -
28/12:30pm 39.1 NW 20 27 1003.0 - 0.0 - - 10 - - - -
28/12:00pm 39.3 NNW 21 27 1003.3 - 0.0 - - 10 - - - -
28/11:30am 38.8 NW 19 29 1003.6 - 0.0 - - 10 - - - -
28/11:06am 37.2 NNW 15 25 1003.8 - 0.0 - - 10 - - - -
28/11:00am 37.1 NNW 16 21 1003.9 - 0.0 - - 10 - - - -
28/10:30am 35.8 NW 15 20 1004.0 - 0.0 - - 10 - - - -
28/10:00am 34.4 N 13 16 1004.1 - 0.0 - - 10 - - - -

Other Formats:

Comma delimited format used in spreadsheet applications
http://www.bom.gov.au/fwo/IDS60701/IDS60701.95664.axf

JavaScript Object Notation format (JSON) in row-major order
http://www.bom.gov.au/fwo/IDS60701/IDS60701.95664.json